Time;durP1;ratioP1;P1;durP2;ratioP2;P2;SDS_P1;SDS_P2;PMS_P1;PMS_P2;Temp;Humidity;BMP_temperature;BMP_pressure;BME280_temperature;BME280_humidity;BME280_pressure;Samples;Min_cycle;Max_cycle;Signal;HPM_P1;HPM_P2
2022/12/28 00:01:50;;;;;;;159.23;99.30;;;;;;;5.54;84.21;98719.63;10284224;28;20533;-56
2022/12/28 00:06:50;;;;;;;155.73;98.72;;;;;;;5.54;84.45;98735.09;10271762;28;20069;-56
2022/12/28 00:11:49;;;;;;;163.85;104.57;;;;;;;5.55;84.09;98736.84;10273095;28;20527;-56
2022/12/28 00:16:48;;;;;;;125.40;77.40;;;;;;;5.60;84.09;98733.53;10269196;28;20057;-56
2022/12/28 00:21:47;;;;;;;116.97;75.40;;;;;;;5.64;84.17;98744.00;10277961;28;20076;-56
2022/12/28 00:26:46;;;;;;;141.07;89.72;;;;;;;5.63;83.73;98749.13;10283677;28;20038;-56
2022/12/28 00:31:45;;;;;;;154.82;96.72;;;;;;;5.62;84.09;98757.63;10283958;28;20065;-56
2022/12/28 00:36:44;;;;;;;159.88;103.65;;;;;;;5.65;83.40;98762.88;10275218;28;20040;-56
2022/12/28 00:41:43;;;;;;;163.80;103.57;;;;;;;5.65;83.68;98761.22;10284070;28;20497;-56
2022/12/28 00:46:42;;;;;;;131.60;83.38;;;;;;;5.61;83.33;98763.63;10283186;28;20117;-56
2022/12/28 00:51:41;;;;;;;100.63;62.60;;;;;;;5.58;83.28;98766.06;10283706;28;20091;-56
2022/12/28 00:56:43;;;;;;;96.95;59.85;;;;;;;5.62;83.40;98783.38;10289503;28;20037;-56
2022/12/28 01:01:42;;;;;;;90.28;55.17;;;;;;;5.51;83.04;98796.78;10290151;28;20456;-56
2022/12/28 01:06:41;;;;;;;92.72;57.28;;;;;;;5.44;82.84;98793.91;10289739;28;20557;-56
2022/12/28 01:11:40;;;;;;;97.63;61.78;;;;;;;5.39;83.55;98788.63;10291048;28;20060;-56
2022/12/28 01:16:39;;;;;;;85.60;58.60;;;;;;;5.46;83.96;98798.31;10286790;28;20523;-59
2022/12/28 01:21:38;;;;;;;80.93;54.38;;;;;;;5.55;84.01;98801.22;10288147;28;20131;-56
2022/12/28 01:26:37;;;;;;;70.88;45.60;;;;;;;5.61;83.25;98787.66;10290013;28;20562;-56
2022/12/28 01:31:36;;;;;;;65.50;41.97;;;;;;;5.67;83.26;98782.75;10289499;28;20124;-56
2022/12/28 01:36:35;;;;;;;60.58;40.30;;;;;;;5.67;82.79;98787.00;10288378;28;20801;-56
2022/12/28 01:41:37;;;;;;;72.45;45.42;;;;;;;5.66;82.29;98796.44;10288926;28;20502;-56
2022/12/28 01:46:41;;;;;;;75.95;47.47;;;;;;;5.65;82.00;98788.63;10288852;28;20877;-56
2022/12/28 01:51:51;;;;;;;75.97;47.78;;;;;;;5.63;82.57;98788.59;10272206;28;20065;-56
2022/12/28 01:56:50;;;;;;;80.85;51.92;;;;;;;5.61;82.78;98786.81;10288121;28;20053;-56
2022/12/28 02:01:50;;;;;;;73.22;50.50;;;;;;;5.67;82.54;98792.16;10283387;28;20046;-57
2022/12/28 02:06:48;;;;;;;;;;;;;;;5.52;83.28;98807.94;10284263;28;20065;-56
2022/12/28 02:11:48;;;;;;;65.05;43.85;;;;;;;5.33;83.53;98806.41;10287840;28;19979;-56
2022/12/28 02:16:47;;;;;;;93.68;58.22;;;;;;;5.31;84.08;98808.91;10279936;28;20072;-56
2022/12/28 02:22:29;;;;;;;89.35;55.28;;;;;;;5.26;83.83;98822.44;10284787;28;20054;-56
2022/12/28 02:27:55;;;;;;;64.93;42.45;;;;;;;5.11;85.07;98835.59;10282349;28;20061;-56
2022/12/28 02:33:07;;;;;;;89.00;56.03;;;;;;;5.14;84.73;98815.13;10287428;28;20068;-56
2022/12/28 02:38:17;;;;;;;75.57;47.97;;;;;;;5.17;85.29;98825.53;10279030;28;20069;-56
2022/12/28 02:43:16;;;;;;;73.18;46.13;;;;;;;5.20;85.18;98819.63;10285211;28;20510;-56
2022/12/28 02:53:48;;;;;;;67.00;42.95;;;;;;;5.19;84.99;98805.88;10287571;28;20498;-56
2022/12/28 02:59:02;;;;;;;65.10;42.92;;;;;;;5.19;84.98;98805.03;10285846;28;20562;-56
2022/12/28 03:04:16;;;;;;;64.57;40.75;;;;;;;5.08;85.22;98810.63;10268747;28;20073;-56
2022/12/28 03:09:37;;;;;;;53.17;35.63;;;;;;;5.08;84.94;98804.59;10282186;28;20538;-56
2022/12/28 03:14:48;;;;;;;55.38;35.50;;;;;;;5.11;84.62;98800.47;10286193;28;20674;-56
2022/12/28 03:36:06;;;;;;;55.88;34.60;;;;;;;5.16;83.94;98822.91;10280203;28;20452;-56
2022/12/28 03:41:14;;;;;;;49.15;31.00;;;;;;;5.16;83.58;98823.81;10284984;28;20478;-56
2022/12/28 03:46:16;;;;;;;49.75;33.03;;;;;;;5.10;83.73;98819.28;10284137;28;20499;-56
2022/12/28 03:51:19;;;;;;;45.75;31.73;;;;;;;5.06;83.93;98814.88;10284335;28;20064;-56
2022/12/28 03:56:21;;;;;;;54.50;34.42;;;;;;;5.07;83.75;98815.72;10284280;28;20811;-57
2022/12/28 04:01:20;;;;;;;54.00;35.40;;;;;;;5.04;83.97;98807.88;10284858;28;20053;-56
2022/12/28 04:06:19;;;;;;;56.88;36.85;;;;;;;5.14;83.79;98812.56;10266021;28;20827;-56
2022/12/28 04:11:18;;;;;;;56.85;36.60;;;;;;;5.16;83.36;98803.22;10282612;28;20514;-56
2022/12/28 04:16:17;;;;;;;55.97;37.30;;;;;;;5.15;83.17;98816.00;10282875;28;20112;-56
2022/12/28 04:21:16;;;;;;;54.85;36.35;;;;;;;5.09;84.02;98802.09;10283473;28;20455;-62
2022/12/28 04:26:16;;;;;;;63.58;44.22;;;;;;;4.99;84.77;98806.84;10279602;28;20575;-56
2022/12/28 04:31:15;;;;;;;94.45;55.75;;;;;;;4.86;84.77;98800.31;10291426;28;20065;-56
2022/12/28 04:36:15;;;;;;;89.72;54.78;;;;;;;4.81;84.93;98795.00;10290868;28;20026;-56
2022/12/28 04:41:15;;;;;;;57.63;34.75;;;;;;;4.70;85.51;98802.28;10291727;28;20065;-56
2022/12/28 04:46:15;;;;;;;46.95;31.27;;;;;;;4.69;85.17;98818.53;10291307;28;20068;-56
2022/12/28 04:51:21;;;;;;;49.25;31.52;;;;;;;4.74;84.92;98826.44;10290296;28;20785;-56
2022/12/28 04:56:22;;;;;;;49.30;30.45;;;;;;;4.78;85.05;98837.72;10290171;28;20065;-57
2022/12/28 05:01:21;;;;;;;51.70;34.60;;;;;;;4.74;85.18;98844.44;10291209;28;20072;-56
2022/12/28 05:06:22;;;;;;;67.13;40.58;;;;;;;4.80;84.99;98847.22;10288729;28;20081;-57
2022/12/28 05:11:24;;;;;;;72.38;45.90;;;;;;;4.70;85.60;98866.56;10291382;28;20820;-56
2022/12/28 05:16:25;;;;;;;68.40;42.60;;;;;;;4.56;85.70;98847.16;10276281;28;20077;-56
2022/12/28 05:21:26;;;;;;;57.58;33.85;;;;;;;4.45;85.64;98869.81;10287650;28;20060;-57
2022/12/28 05:26:28;;;;;;;51.90;32.42;;;;;;;4.37;85.80;98858.38;10287393;28;20069;-56
2022/12/28 05:31:27;;;;;;;45.92;29.42;;;;;;;4.32;85.84;98870.16;10289665;28;20069;-56
2022/12/28 05:36:26;;;;;;;;;;;;;;;4.28;85.88;98873.41;10288341;28;20076;-57
2022/12/28 05:41:28;;;;;;;57.55;35.95;;;;;;;4.25;85.91;98883.56;10288212;28;19945;-56
2022/12/28 05:46:33;;;;;;;50.92;33.40;;;;;;;4.27;86.06;98887.09;10288435;28;20065;-56
2022/12/28 05:51:32;;;;;;;52.97;33.83;;;;;;;4.27;85.92;98902.50;10284948;28;20054;-56
2022/12/28 05:56:31;;;;;;;52.58;33.97;;;;;;;4.29;86.08;98896.59;10287102;28;20474;-57
2022/12/28 06:01:33;;;;;;;52.72;33.58;;;;;;;4.28;86.03;98897.41;10288011;28;20066;-56
2022/12/28 06:06:34;;;;;;;52.58;33.05;;;;;;;4.29;85.98;98896.59;10284325;28;20506;-56
2022/12/28 06:11:33;;;;;;;57.53;37.17;;;;;;;4.27;86.12;98900.81;10288678;28;20092;-56
2022/12/28 06:16:35;;;;;;;60.58;41.30;;;;;;;4.28;86.15;98902.53;10242312;28;20495;-57
2022/12/28 06:21:36;;;;;;;61.08;40.53;;;;;;;4.26;85.75;98906.72;10245627;28;20077;-56
2022/12/28 06:26:37;;;;;;;54.83;34.83;;;;;;;4.26;85.78;98917.00;10230478;28;20086;-56
2022/12/28 06:31:39;;;;;;;76.13;47.35;;;;;;;4.28;85.62;98917.97;10245448;28;20114;-56
2022/12/28 06:36:43;;;;;;;96.55;63.47;;;;;;;3.94;86.71;98907.03;10247403;28;20092;-56
2022/12/28 06:41:42;;;;;;;98.97;63.15;;;;;;;3.95;86.50;98903.69;10234734;28;20117;-56
2022/12/28 06:46:41;;;;;;;95.75;61.63;;;;;;;4.07;86.30;98904.19;10243371;28;20038;-58
2022/12/28 06:51:40;;;;;;;89.68;60.63;;;;;;;4.17;86.22;98903.78;10244530;28;20122;-56
2022/12/28 06:56:39;;;;;;;150.40;98.65;;;;;;;4.19;86.60;98906.41;10245574;28;20104;-56
2022/12/28 07:01:40;;;;;;;108.53;69.45;;;;;;;4.19;87.33;98914.13;10249360;28;20052;-56
2022/12/28 07:06:41;;;;;;;76.30;47.78;;;;;;;4.35;87.33;98918.22;10245450;28;20081;-56
2022/12/28 07:11:41;;;;;;;60.30;38.28;;;;;;;4.57;86.41;98905.47;10245537;28;20913;-56
2022/12/28 07:16:40;;;;;;;42.92;27.88;;;;;;;4.82;85.92;98916.75;10243645;28;20902;-56
2022/12/28 07:21:39;;;;;;;56.83;34.75;;;;;;;4.99;85.59;98930.31;10244267;28;20076;-56
2022/12/28 07:26:38;;;;;;;49.28;30.75;;;;;;;5.23;84.70;98920.13;10244256;28;20499;-56
2022/12/28 07:31:39;;;;;;;61.22;35.95;;;;;;;5.45;83.82;98921.81;10244074;28;20126;-56
2022/12/28 07:36:38;;;;;;;57.53;37.75;;;;;;;5.55;83.24;98903.31;10244846;28;20081;-56
2022/12/28 07:41:37;;;;;;;48.42;32.10;;;;;;;5.74;82.65;98902.28;10244179;28;20066;-56
2022/12/28 07:46:37;;;;;;;65.43;40.05;;;;;;;5.84;80.81;98888.94;10235361;28;20828;-56
2022/12/28 07:51:37;;;;;;;68.70;41.63;;;;;;;5.90;81.58;98891.72;10251097;28;20125;-56
2022/12/28 07:56:36;;;;;;;35.05;25.98;;;;;;;6.07;79.88;98902.63;10247101;28;20583;-56
2022/12/28 08:01:35;;;;;;;64.72;46.15;;;;;;;6.20;79.27;98901.34;10247689;28;20113;-56
2022/12/28 08:06:38;;;;;;;87.07;59.83;;;;;;;6.34;78.48;98901.84;10241639;28;20112;-57
2022/12/28 08:11:40;;;;;;;68.05;47.72;;;;;;;6.28;78.22;98897.34;10241390;28;20157;-56
2022/12/28 08:16:41;;;;;;;72.40;52.50;;;;;;;6.18;78.73;98884.97;10228385;28;20080;-56
2022/12/28 08:21:43;;;;;;;85.53;54.83;;;;;;;6.30;79.13;98889.66;10239269;28;20129;-57
2022/12/28 08:26:43;;;;;;;88.25;58.65;;;;;;;6.43;79.78;98898.69;10239243;28;20077;-56
2022/12/28 08:31:43;;;;;;;94.35;65.78;;;;;;;6.42;78.18;98886.63;10242449;28;20117;-56
2022/12/28 08:36:42;;;;;;;95.25;69.32;;;;;;;6.69;77.92;98900.44;10242664;28;20116;-56
2022/12/28 08:41:41;;;;;;;121.53;88.15;;;;;;;6.80;77.57;98888.75;10234353;28;20124;-56
2022/12/28 08:46:40;;;;;;;88.55;62.88;;;;;;;7.06;76.49;98886.13;10240961;28;20046;-57
2022/12/28 08:51:40;;;;;;;72.28;48.13;;;;;;;7.18;75.77;98883.03;10241379;28;20124;-57
2022/12/28 08:56:41;;;;;;;69.32;46.63;;;;;;;7.39;73.17;98886.28;10240074;28;20149;-56
2022/12/28 09:01:40;;;;;;;40.15;28.02;;;;;;;7.44;72.20;98870.94;10240913;28;20839;-56
2022/12/28 09:06:39;;;;;;;31.55;22.83;;;;;;;7.64;72.34;98862.06;10237775;28;20832;-56
2022/12/28 09:11:40;;;;;;;40.22;30.58;;;;;;;7.87;71.72;98867.88;10233720;28;20125;-56
2022/12/28 09:16:39;;;;;;;26.80;16.17;;;;;;;7.90;68.92;98856.75;10242929;28;20538;-56
2022/12/28 09:21:38;;;;;;;;;;;;;;;7.90;67.65;98854.19;10249606;28;20070;-56
2022/12/28 09:26:38;;;;;;;39.35;26.20;;;;;;;7.98;67.22;98844.91;10248728;28;19987;-56
2022/12/28 09:31:38;;;;;;;42.63;31.33;;;;;;;8.02;65.98;98846.75;10248469;28;20066;-56
2022/12/28 09:36:40;;;;;;;42.97;30.20;;;;;;;8.10;65.54;98839.19;10248735;28;20459;-56
2022/12/28 09:41:53;;;;;;;42.65;31.90;;;;;;;8.13;65.57;98821.19;10245901;28;20109;-56
2022/12/28 09:46:59;;;;;;;50.38;34.13;;;;;;;8.20;65.90;98815.34;10237618;28;20452;-56
2022/12/28 09:52:19;;;;;;;65.50;45.90;;;;;;;8.12;65.19;98810.78;10241802;28;20118;-56
2022/12/28 09:57:19;;;;;;;71.72;51.63;;;;;;;8.21;65.07;98818.78;10248484;28;20097;-57
2022/12/28 10:02:30;;;;;;;61.20;45.03;;;;;;;8.31;64.69;98813.00;10245983;28;20742;-56
2022/12/28 10:07:29;;;;;;;63.67;46.33;;;;;;;8.28;63.83;98797.41;10243576;28;20834;-56
2022/12/28 10:12:28;;;;;;;53.65;38.67;;;;;;;8.30;64.26;98796.63;10239953;28;20467;-57
2022/12/28 10:17:29;;;;;;;39.85;29.58;;;;;;;8.42;62.95;98785.69;10239228;28;20476;-57
2022/12/28 10:22:37;;;;;;;57.92;42.90;;;;;;;8.73;63.49;98786.41;10245453;28;20093;-56
2022/12/28 10:27:36;;;;;;;72.45;52.17;;;;;;;8.85;63.00;98789.25;10247053;28;20475;-56
2022/12/28 10:32:58;;;;;;;73.10;51.45;;;;;;;8.86;61.69;98783.25;10244829;28;20503;-57
2022/12/28 10:38:04;;;;;;;75.07;52.80;;;;;;;8.92;61.66;98765.25;10243641;28;20495;-57
2022/12/28 10:43:03;;;;;;;79.18;60.15;;;;;;;9.11;62.15;98765.66;10240151;28;20483;-57
2022/12/28 10:48:15;;;;;;;54.85;40.70;;;;;;;9.14;60.21;98757.97;10240732;28;20539;-57
2022/12/28 10:53:25;;;;;;;42.28;30.48;;;;;;;9.10;59.25;98763.94;10242225;28;20160;-57
2022/12/28 10:58:26;;;;;;;;;;;;;;;8.97;58.90;98762.78;10243677;28;20558;-56
2022/12/28 11:03:34;;;;;;;55.00;41.78;;;;;;;8.89;57.82;98765.22;10240864;28;20012;-57
2022/12/28 11:08:33;;;;;;;51.50;39.65;;;;;;;8.86;58.13;98751.34;10236184;28;20133;-57
2022/12/28 11:13:32;;;;;;;52.53;41.03;;;;;;;8.83;58.17;98752.16;10240959;28;20048;-57
2022/12/28 11:18:31;;;;;;;57.40;42.08;;;;;;;8.73;57.99;98752.78;10239186;28;20590;-56
2022/12/28 11:23:33;;;;;;;62.17;45.42;;;;;;;8.91;57.24;98758.34;10241177;28;20034;-57
2022/12/28 11:28:32;;;;;;;63.78;48.80;;;;;;;9.05;57.48;98761.25;10236681;28;20113;-56
2022/12/28 11:33:44;;;;;;;76.78;56.75;;;;;;;8.99;56.91;98740.38;10240738;28;20050;-57
2022/12/28 11:38:46;;;;;;;60.25;46.03;;;;;;;8.99;57.35;98755.91;10237200;28;20452;-56
2022/12/28 11:43:53;;;;;;;80.50;59.50;;;;;;;9.10;58.09;98769.97;10237205;28;20518;-57
2022/12/28 11:48:57;;;;;;;99.25;75.93;;;;;;;9.14;58.07;98760.56;10240065;28;20124;-56
2022/12/28 11:53:58;;;;;;;38.05;30.38;;;;;;;9.13;60.36;98763.97;10237595;28;20129;-56
2022/12/28 11:58:57;;;;;;;32.67;23.35;;;;;;;8.84;60.17;98758.19;10229511;28;20129;-57
2022/12/28 12:03:56;;;;;;;33.83;26.70;;;;;;;8.79;63.45;98745.16;10222310;28;20034;-57
2022/12/28 12:08:55;;;;;;;39.92;29.58;;;;;;;8.90;63.08;98728.16;10204583;28;20197;-56
2022/12/28 12:13:57;;;;;;;48.35;34.58;;;;;;;9.05;64.01;98730.16;10237267;28;20038;-57
2022/12/28 12:18:58;;;;;;;91.15;69.05;;;;;;;8.91;64.92;98716.94;10236438;28;20095;-56
2022/12/28 12:24:07;;;;;;;100.95;76.18;;;;;;;8.86;64.46;98718.56;10239802;28;20073;-57
2022/12/28 12:29:38;;;;;;;97.20;76.82;;;;;;;8.88;64.85;98700.44;10226656;28;20113;-57
2022/12/28 12:34:54;;;;;;;91.70;67.32;;;;;;;8.90;64.85;98704.84;10235303;28;20484;-57
2022/12/28 12:40:13;;;;;;;97.05;68.63;;;;;;;8.88;65.10;98715.97;10236763;28;20065;-56
2022/12/28 12:45:12;;;;;;;90.43;66.72;;;;;;;8.66;64.66;98717.25;10234133;28;20502;-56
2022/12/28 12:50:13;;;;;;;58.63;41.28;;;;;;;8.47;64.83;98705.63;10242320;28;20399;-56
2022/12/28 12:55:21;;;;;;;38.78;29.52;;;;;;;8.36;65.50;98710.53;10246761;28;20122;-56
2022/12/28 13:00:21;;;;;;;43.13;32.42;;;;;;;8.40;65.86;98696.84;10241110;28;20110;-57
2022/12/28 13:05:25;;;;;;;35.90;26.85;;;;;;;8.50;65.22;98696.22;10231744;28;20074;-57
2022/12/28 13:10:33;;;;;;;36.45;26.73;;;;;;;8.70;65.11;98690.59;10246842;28;20138;-56
2022/12/28 13:15:32;;;;;;;41.55;32.03;;;;;;;8.78;65.02;98686.44;10246617;28;20117;-56
2022/12/28 13:20:32;;;;;;;46.20;33.33;;;;;;;8.82;64.31;98677.91;10241311;28;20686;-56
2022/12/28 13:25:33;;;;;;;43.00;29.95;;;;;;;8.76;63.22;98663.97;10239087;28;20137;-57
2022/12/28 13:30:32;;;;;;;43.58;30.83;;;;;;;8.68;63.81;98669.00;10242147;28;20124;-56
2022/12/28 13:35:33;;;;;;;41.63;30.75;;;;;;;8.58;63.39;98669.66;10244090;28;20140;-56
2022/12/28 13:40:32;;;;;;;44.97;30.33;;;;;;;8.50;62.77;98667.78;10242267;28;20125;-56
2022/12/28 13:45:33;;;;;;;59.08;45.60;;;;;;;8.50;62.88;98669.47;10254388;28;20605;-56
2022/12/28 13:50:35;;;;;;;52.28;36.72;;;;;;;8.48;62.80;98658.19;10242699;28;20122;-56
2022/12/28 13:55:45;;;;;;;45.25;32.60;;;;;;;8.48;63.12;98664.28;10242863;28;20077;-57
2022/12/28 14:00:46;;;;;;;46.58;34.33;;;;;;;8.45;62.86;98665.91;10232267;28;20070;-57
2022/12/28 14:05:53;;;;;;;33.85;24.45;;;;;;;8.39;62.68;98674.41;10233974;28;20113;-57
2022/12/28 14:10:53;;;;;;;92.53;49.42;;;;;;;8.39;62.95;98682.19;10231229;28;20133;-57
2022/12/28 14:15:53;;;;;;;58.08;37.95;;;;;;;8.30;63.29;98671.63;10238922;28;20065;-57
2022/12/28 14:20:54;;;;;;;42.92;30.27;;;;;;;8.39;63.30;98694.19;10280639;28;20153;-57
2022/12/28 14:25:58;;;;;;;53.08;41.22;;;;;;;8.30;63.70;98693.16;10280818;28;20120;-57
2022/12/28 14:30:57;;;;;;;43.78;32.72;;;;;;;8.18;63.44;98707.53;10279022;28;20138;-57
2022/12/28 14:36:02;;;;;;;48.85;37.40;;;;;;;8.05;63.27;98709.81;10282152;28;20068;-57
2022/12/28 14:41:01;;;;;;;55.22;39.83;;;;;;;8.08;64.32;98709.91;10271909;28;20073;-56
2022/12/28 14:46:27;;;;;;;51.55;36.38;;;;;;;8.17;65.50;98708.34;10282582;28;20456;-57
2022/12/28 14:51:30;;;;;;;60.88;43.00;;;;;;;8.14;66.43;98719.50;10279621;28;20077;-57
2022/12/28 14:56:33;;;;;;;52.55;38.03;;;;;;;8.16;66.73;98717.84;10274522;28;20133;-57
2022/12/28 15:01:40;;;;;;;56.10;38.58;;;;;;;8.12;67.54;98705.66;10277662;28;20118;-57
2022/12/28 15:06:39;;;;;;;58.67;39.85;;;;;;;8.09;68.17;98706.47;10282056;28;20114;-57
2022/12/28 15:11:38;;;;;;;52.97;39.22;;;;;;;8.03;68.79;98690.78;10293505;28;20152;-57
2022/12/28 15:16:38;;;;;;;53.10;39.75;;;;;;;8.04;69.76;98696.88;10280395;28;20063;-57
2022/12/28 15:21:36;;;;;;;71.70;49.38;;;;;;;7.99;69.31;98694.16;10277595;28;20050;-57
2022/12/28 15:26:36;;;;;;;68.53;49.45;;;;;;;7.96;68.55;98698.38;10271733;28;20038;-57
2022/12/28 15:31:35;;;;;;;87.97;57.30;;;;;;;7.88;69.29;98696.47;10268755;28;20153;-57
2022/12/28 15:36:34;;;;;;;103.82;68.72;;;;;;;7.82;69.72;98692.88;10259003;28;20121;-57
2022/12/28 15:41:45;;;;;;;118.80;83.00;;;;;;;7.57;69.46;98697.41;10276735;28;20113;-57
2022/12/28 15:46:45;;;;;;;118.70;84.32;;;;;;;7.54;69.55;98694.75;10280578;28;20077;-57
2022/12/28 15:51:44;;;;;;;108.63;75.15;;;;;;;7.47;69.91;98700.56;10280476;28;20069;-57
2022/12/28 15:56:53;;;;;;;107.53;69.50;;;;;;;7.23;70.77;98691.31;10258556;28;20140;-57
2022/12/28 16:01:52;;;;;;;113.83;76.57;;;;;;;7.15;70.77;98689.38;10271952;28;20125;-57
2022/12/28 16:06:51;;;;;;;103.65;67.13;;;;;;;7.10;70.95;98702.16;10265034;28;20044;-57
2022/12/28 16:11:51;;;;;;;127.13;73.35;;;;;;;7.06;69.65;98692.56;10274077;28;20049;-57
2022/12/28 16:16:50;;;;;;;77.63;49.45;;;;;;;7.13;68.54;98694.47;10257806;28;20145;-57
2022/12/28 16:21:49;;;;;;;;;;;;;;;7.15;68.74;98689.38;10234002;28;20152;-57
2022/12/28 16:26:48;;;;;;;54.10;38.33;;;;;;;7.15;68.33;98679.03;10243699;28;20008;-57
2022/12/28 16:31:47;;;;;;;37.08;26.83;;;;;;;7.07;67.87;98676.22;10246709;28;20160;-57
2022/12/28 16:36:46;;;;;;;42.05;30.30;;;;;;;7.06;67.69;98674.50;10247456;28;20543;-57
2022/12/28 16:41:45;;;;;;;42.33;29.35;;;;;;;7.06;68.20;98676.22;10249079;28;20117;-57
2022/12/28 16:46:45;;;;;;;52.92;32.75;;;;;;;7.09;67.78;98673.69;10247705;28;20136;-57
2022/12/28 16:51:45;;;;;;;79.50;50.15;;;;;;;7.13;68.13;98684.16;10237227;28;20133;-57
2022/12/28 16:56:44;;;;;;;;;;;;;;;7.09;68.88;98682.31;10239630;28;20584;-57
2022/12/28 17:01:44;;;;;;;122.70;79.18;;;;;;;7.02;69.49;98678.69;10243049;28;20581;-58
2022/12/28 17:06:45;;;;;;;81.75;55.47;;;;;;;7.09;69.85;98694.34;10246635;28;20689;-57
2022/12/28 17:11:48;;;;;;;109.93;75.78;;;;;;;7.11;70.77;98692.69;10225113;28;20142;-57
2022/12/28 17:16:47;;;;;;;100.45;66.97;;;;;;;6.93;71.90;98704.22;10225929;28;20052;-57
2022/12/28 17:21:46;;;;;;;74.70;52.33;;;;;;;6.85;72.09;98710.03;10244034;28;20049;-57
2022/12/28 17:26:45;;;;;;;73.95;48.47;;;;;;;6.85;72.63;98699.69;10235130;28;20049;-57
2022/12/28 17:31:44;;;;;;;69.85;42.85;;;;;;;6.86;72.83;98691.97;10240401;28;20038;-57
2022/12/28 17:36:43;;;;;;;66.75;41.97;;;;;;;6.88;72.65;98676.56;10243553;28;20038;-56
2022/12/28 17:41:42;;;;;;;57.53;38.65;;;;;;;6.90;72.58;98669.75;10242980;28;20034;-57
2022/12/28 17:46:41;;;;;;;60.08;40.13;;;;;;;6.86;71.28;98675.63;10243905;28;20153;-57
2022/12/28 17:51:41;;;;;;;55.42;37.88;;;;;;;6.80;70.48;98666.03;10233220;28;20082;-57
2022/12/28 17:56:40;;;;;;;60.10;40.20;;;;;;;6.86;71.00;98667.91;10242464;28;20144;-57
2022/12/28 18:01:40;;;;;;;75.40;49.83;;;;;;;6.82;70.76;98665.25;10241565;28;20121;-57
2022/12/28 18:06:39;;;;;;;;;;;;;;;6.77;70.28;98677.13;10244818;28;20133;-57
2022/12/28 18:11:38;;;;;;;90.38;60.33;;;;;;;6.71;71.35;98671.78;10239459;28;19989;-57
2022/12/28 18:16:37;;;;;;;77.75;54.42;;;;;;;6.59;70.10;98679.19;10243544;28;20078;-57
2022/12/28 18:21:36;;;;;;;67.70;46.47;;;;;;;6.55;70.85;98690.22;10241388;28;20120;-57
2022/12/28 18:26:35;;;;;;;50.08;36.25;;;;;;;6.40;70.28;98676.03;10237813;28;20038;-57
2022/12/28 18:31:34;;;;;;;59.95;39.40;;;;;;;6.42;71.37;98693.25;10242594;28;20564;-57
2022/12/28 18:36:33;;;;;;;69.78;42.97;;;;;;;6.40;71.45;98681.19;10242230;28;20487;-57
2022/12/28 18:41:32;;;;;;;24.60;15.30;;;;;;;6.44;70.81;98666.69;10231041;28;20121;-57
2022/12/28 18:46:31;;;;;;;16.27;9.95;;;;;;;6.44;71.51;98676.13;10240332;28;20046;-57
2022/12/28 18:51:30;;;;;;;14.98;10.05;;;;;;;6.49;71.28;98671.97;10240686;28;20475;-57
2022/12/28 18:56:28;;;;;;;13.32;9.40;;;;;;;6.57;70.92;98676.53;10238916;28;20034;-57
2022/12/28 19:01:27;;;;;;;17.67;10.02;;;;;;;6.65;70.51;98674.19;10242866;28;20042;-57
2022/12/28 19:06:28;;;;;;;19.40;11.63;;;;;;;6.71;69.67;98681.25;10236910;28;20140;-57
2022/12/28 19:11:27;;;;;;;19.65;12.20;;;;;;;6.73;69.51;98685.59;10226715;28;20129;-57
2022/12/28 19:16:26;;;;;;;15.35;9.80;;;;;;;6.68;69.65;98668.22;10239830;28;20118;-57
2022/12/28 19:21:36;;;;;;;19.25;12.07;;;;;;;6.68;70.16;98666.56;10222790;28;20125;-57
2022/12/28 19:26:35;;;;;;;15.38;10.98;;;;;;;6.68;69.85;98666.56;10235534;28;20121;-57
2022/12/28 19:31:34;;;;;;;14.82;10.23;;;;;;;6.67;69.63;98677.69;10223963;28;20119;-57
2022/12/28 19:36:33;;;;;;;21.60;12.98;;;;;;;6.73;70.17;98679.59;10239090;28;20617;-57
2022/12/28 19:41:32;;;;;;;15.95;11.38;;;;;;;6.77;69.27;98681.41;10235741;28;20057;-57
2022/12/28 19:46:31;;;;;;;15.85;11.00;;;;;;;6.69;70.14;98667.41;10237989;28;20038;-57
2022/12/28 19:51:31;;;;;;;;;;;;;;;6.72;70.47;98673.53;10231675;28;20121;-57
2022/12/28 19:56:30;;;;;;;14.80;10.65;;;;;;;6.70;70.57;98679.47;10242584;28;19941;-57
2022/12/28 20:21:24;;;;;;;18.13;12.82;;;;;;;6.83;69.66;98682.44;10505251;27;20431;-51
2022/12/28 20:26:25;;;;;;;14.70;11.55;;;;;;;6.87;69.57;98690.31;10506242;28;20078;-53
2022/12/28 20:31:25;;;;;;;17.80;12.60;;;;;;;6.88;69.11;98686.88;10504598;28;20102;-52
2022/12/28 20:36:26;;;;;;;18.55;12.52;;;;;;;6.89;69.10;98671.44;10507297;28;20050;-51
2022/12/28 20:46:45;;;;;;;26.95;17.27;;;;;;;6.73;68.88;98683.03;10543521;27;20126;-51
2022/12/28 20:51:46;;;;;;;15.45;11.27;;;;;;;6.68;69.55;98679.44;10513645;28;20027;-52
2022/12/28 20:56:46;;;;;;;24.23;16.40;;;;;;;6.67;68.93;98675.09;10496066;27;20148;-52
2022/12/28 21:01:45;;;;;;;13.38;10.50;;;;;;;6.49;69.45;98674.56;10518477;27;20064;-54
2022/12/28 21:06:44;;;;;;;15.52;9.93;;;;;;;6.44;70.28;98664.09;10522214;28;20173;-49
2022/12/28 21:11:43;;;;;;;16.80;11.10;;;;;;;6.36;69.83;98669.03;10521387;27;20064;-54
2022/12/28 21:16:42;;;;;;;14.65;9.52;;;;;;;6.31;70.28;98655.13;10423252;27;20065;-55
2022/12/28 21:21:41;;;;;;;14.57;9.65;;;;;;;6.25;70.49;98669.53;10372505;28;20136;-53
2022/12/28 21:26:40;;;;;;;14.40;9.35;;;;;;;6.17;70.55;98669.31;10358276;28;20033;-53
2022/12/28 21:31:39;;;;;;;12.60;9.93;;;;;;;6.15;70.54;98640.03;10357977;28;20039;-51
2022/12/28 21:36:38;;;;;;;18.33;9.73;;;;;;;6.00;70.71;98642.13;10356114;28;20052;-50
2022/12/28 21:41:49;;;;;;;16.00;9.98;;;;;;;5.98;71.17;98639.53;10358994;28;20056;-49
2022/12/28 21:46:52;;;;;;;14.15;8.93;;;;;;;5.90;70.94;98646.97;10360025;28;20065;-51
2022/12/28 21:51:51;;;;;;;13.35;9.55;;;;;;;5.84;71.05;98654.53;10356335;28;20140;-52
2022/12/28 21:56:52;;;;;;;18.90;12.25;;;;;;;5.88;70.72;98664.13;10359364;28;20051;-52
2022/12/28 22:07:12;;;;;;;13.48;9.57;;;;;;;5.87;70.70;98648.59;10355288;28;20060;-51
2022/12/28 22:17:29;;;;;;;16.75;12.13;;;;;;;5.81;70.87;98656.13;10361393;28;20475;-52
2022/12/28 22:22:28;;;;;;;21.40;14.80;;;;;;;5.65;71.30;98652.16;10355165;28;20716;-52
2022/12/28 22:27:27;;;;;;;18.92;12.48;;;;;;;5.53;71.50;98647.50;10357801;28;20064;-52
2022/12/28 22:32:26;;;;;;;14.95;10.10;;;;;;;5.51;70.92;98654.31;10358136;28;20092;-52
2022/12/28 22:37:25;;;;;;;17.02;10.90;;;;;;;5.51;71.05;98655.19;10347668;28;20054;-52
2022/12/28 22:42:24;;;;;;;17.50;11.85;;;;;;;5.57;70.99;98646.78;10350942;28;20157;-52
2022/12/28 22:47:26;;;;;;;16.15;10.98;;;;;;;5.68;70.55;98660.00;10356708;28;20505;-52
2022/12/28 22:52:25;;;;;;;165.90;62.35;;;;;;;5.72;69.89;98646.41;10349432;28;20084;-52
2022/12/28 22:57:24;;;;;;;111.28;52.38;;;;;;;5.68;70.38;98644.56;10359275;28;20029;-52
2022/12/28 23:02:23;;;;;;;31.85;17.67;;;;;;;5.83;70.09;98644.16;10361225;28;20116;-52
2022/12/28 23:07:22;;;;;;;31.63;19.42;;;;;;;5.82;69.65;98635.56;10360305;28;20047;-51
2022/12/28 23:12:20;;;;;;;30.50;18.65;;;;;;;5.98;69.31;98639.53;10357521;28;20052;-51
2022/12/28 23:17:19;;;;;;;17.70;11.93;;;;;;;6.07;69.21;98632.06;10344645;28;20376;-52
2022/12/28 23:27:41;;;;;;;30.40;21.63;;;;;;;6.15;68.82;98625.44;10347978;28;20065;-51
2022/12/28 23:32:40;;;;;;;34.88;22.80;;;;;;;6.04;69.81;98628.53;10357580;28;20079;-52
2022/12/28 23:37:40;;;;;;;31.00;21.30;;;;;;;5.88;69.62;98629.72;10355332;28;20039;-52
2022/12/28 23:42:40;;;;;;;28.17;20.65;;;;;;;5.62;70.42;98614.31;10361632;28;20069;-50
2022/12/28 23:47:40;;;;;;;26.38;19.30;;;;;;;5.52;70.83;98614.84;10363104;28;20065;-52
2022/12/28 23:52:40;;;;;;;27.52;16.85;;;;;;;5.63;70.84;98617.78;10368209;28;20487;-51
2022/12/28 23:57:39;;;;;;;23.65;15.10;;;;;;;5.72;70.37;98616.38;10369230;28;20064;-53
